sensor_id;sensor_type;location;lat;lon;timestamp;pressure;altitude;pressure_sealevel;temperature;humidity
53715;BME280;39608;55.630;37.864;2023-02-10T00:01:39;100554.41;;;-0.50;60.82
53715;BME280;39608;55.630;37.864;2023-02-10T00:06:41;100546.81;;;-0.53;60.84
53715;BME280;39608;55.630;37.864;2023-02-10T00:11:43;100528.91;;;-0.59;60.75
53715;BME280;39608;55.630;37.864;2023-02-10T00:17:02;100525.84;;;-0.63;60.73
53715;BME280;39608;55.630;37.864;2023-02-10T00:22:05;100513.53;;;-0.64;60.35
53715;BME280;39608;55.630;37.864;2023-02-10T00:27:07;100510.44;;;-0.67;60.31
53715;BME280;39608;55.630;37.864;2023-02-10T00:32:10;100494.22;;;-0.73;60.21
53715;BME280;39608;55.630;37.864;2023-02-10T00:37:12;100498.72;;;-0.73;60.81
53715;BME280;39608;55.630;37.864;2023-02-10T00:42:14;100487.88;;;-0.72;60.28
53715;BME280;39608;55.630;37.864;2023-02-10T00:47:17;100485.19;;;-0.72;60.19
53715;BME280;39608;55.630;37.864;2023-02-10T00:52:19;100458.56;;;-0.78;59.92
53715;BME280;39608;55.630;37.864;2023-02-10T00:57:21;100448.91;;;-0.79;59.71
53715;BME280;39608;55.630;37.864;2023-02-10T01:02:25;100461.88;;;-0.70;59.98
53715;BME280;39608;55.630;37.864;2023-02-10T01:07:27;100466.56;;;-0.72;59.67
53715;BME280;39608;55.630;37.864;2023-02-10T01:12:29;100446.66;;;-0.76;59.83
53715;BME280;39608;55.630;37.864;2023-02-10T01:17:33;100438.31;;;-0.73;59.67
53715;BME280;39608;55.630;37.864;2023-02-10T01:22:35;100418.97;;;-0.81;59.45
53715;BME280;39608;55.630;37.864;2023-02-10T01:27:37;100425.34;;;-0.76;59.76
53715;BME280;39608;55.630;37.864;2023-02-10T01:32:40;100419.41;;;-0.78;59.57
53715;BME280;39608;55.630;37.864;2023-02-10T01:37:42;100419.81;;;-0.74;59.30
53715;BME280;39608;55.630;37.864;2023-02-10T01:42:44;100402.22;;;-0.75;59.39
53715;BME280;39608;55.630;37.864;2023-02-10T01:47:50;100385.59;;;-0.77;59.37
53715;BME280;39608;55.630;37.864;2023-02-10T01:52:54;100393.31;;;-0.96;59.36
53715;BME280;39608;55.630;37.864;2023-02-10T01:57:58;100389.00;;;-0.97;59.45
53715;BME280;39608;55.630;37.864;2023-02-10T02:03:02;100374.28;;;-0.93;59.75
53715;BME280;39608;55.630;37.864;2023-02-10T02:08:07;100375.06;;;-0.99;58.93
53715;BME280;39608;55.630;37.864;2023-02-10T02:13:16;100375.69;;;-0.97;59.26
53715;BME280;39608;55.630;37.864;2023-02-10T02:18:32;100376.72;;;-0.98;59.31
53715;BME280;39608;55.630;37.864;2023-02-10T02:24:04;100377.69;;;-1.06;59.68
53715;BME280;39608;55.630;37.864;2023-02-10T02:29:29;100359.66;;;-1.10;59.45
53715;BME280;39608;55.630;37.864;2023-02-10T02:34:38;100351.47;;;-1.09;59.72
53715;BME280;39608;55.630;37.864;2023-02-10T02:39:42;100353.69;;;-1.12;59.72
53715;BME280;39608;55.630;37.864;2023-02-10T02:44:47;100320.72;;;-1.18;59.16
53715;BME280;39608;55.630;37.864;2023-02-10T02:49:57;100319.09;;;-1.12;59.41
53715;BME280;39608;55.630;37.864;2023-02-10T02:55:09;100281.72;;;-1.39;59.51
53715;BME280;39608;55.630;37.864;2023-02-10T03:00:16;100299.00;;;-1.22;59.99
53715;BME280;39608;55.630;37.864;2023-02-10T03:05:23;100291.03;;;-1.22;59.57
53715;BME280;39608;55.630;37.864;2023-02-10T03:10:29;100279.94;;;-1.25;59.77
53715;BME280;39608;55.630;37.864;2023-02-10T03:15:31;100290.78;;;-1.27;59.36
53715;BME280;39608;55.630;37.864;2023-02-10T03:20:34;100275.63;;;-1.26;59.50
53715;BME280;39608;55.630;37.864;2023-02-10T03:25:36;100270.50;;;-1.28;60.16
53715;BME280;39608;55.630;37.864;2023-02-10T03:30:38;100270.91;;;-1.31;60.13
53715;BME280;39608;55.630;37.864;2023-02-10T03:35:48;100264.19;;;-1.27;60.04
53715;BME280;39608;55.630;37.864;2023-02-10T03:40:51;100245.13;;;-1.30;59.50
53715;BME280;39608;55.630;37.864;2023-02-10T03:45:53;100233.44;;;-1.36;59.46
53715;BME280;39608;55.630;37.864;2023-02-10T03:50:56;100227.91;;;-1.34;59.66
53715;BME280;39608;55.630;37.864;2023-02-10T03:55:59;100208.25;;;-1.40;59.63
53715;BME280;39608;55.630;37.864;2023-02-10T04:01:08;100208.06;;;-1.32;60.13
53715;BME280;39608;55.630;37.864;2023-02-10T04:06:11;100198.44;;;-1.40;59.64
53715;BME280;39608;55.630;37.864;2023-02-10T04:11:13;100182.88;;;-1.43;59.74
53715;BME280;39608;55.630;37.864;2023-02-10T04:16:16;100164.63;;;-1.52;59.60
53715;BME280;39608;55.630;37.864;2023-02-10T04:21:21;100180.00;;;-1.41;60.31
53715;BME280;39608;55.630;37.864;2023-02-10T04:26:25;100164.44;;;-1.44;59.88
53715;BME280;39608;55.630;37.864;2023-02-10T04:31:26;100167.94;;;-1.44;59.89
53715;BME280;39608;55.630;37.864;2023-02-10T04:36:30;100172.03;;;-1.41;60.61
53715;BME280;39608;55.630;37.864;2023-02-10T04:41:32;100148.88;;;-1.47;60.69
53715;BME280;39608;55.630;37.864;2023-02-10T04:46:34;100147.84;;;-1.53;60.38
53715;BME280;39608;55.630;37.864;2023-02-10T04:51:38;100148.09;;;-1.41;60.72
53715;BME280;39608;55.630;37.864;2023-02-10T04:56:40;100156.44;;;-1.44;59.88
53715;BME280;39608;55.630;37.864;2023-02-10T05:01:43;100149.50;;;-1.45;60.48
53715;BME280;39608;55.630;37.864;2023-02-10T05:06:47;100140.91;;;-1.41;60.73
53715;BME280;39608;55.630;37.864;2023-02-10T05:11:49;100137.66;;;-1.43;59.92
53715;BME280;39608;55.630;37.864;2023-02-10T05:16:52;100129.84;;;-1.44;60.21
53715;BME280;39608;55.630;37.864;2023-02-10T05:21:57;100134.16;;;-1.43;60.01
53715;BME280;39608;55.630;37.864;2023-02-10T05:26:59;100121.22;;;-1.53;60.38
53715;BME280;39608;55.630;37.864;2023-02-10T05:32:01;100126.34;;;-1.51;60.63
53715;BME280;39608;55.630;37.864;2023-02-10T05:37:05;100133.53;;;-1.52;60.61
53715;BME280;39608;55.630;37.864;2023-02-10T05:42:09;100105.47;;;-1.55;61.08
53715;BME280;39608;55.630;37.864;2023-02-10T05:47:11;100099.94;;;-1.53;60.41
53715;BME280;39608;55.630;37.864;2023-02-10T05:52:15;100094.22;;;-1.50;60.59
53715;BME280;39608;55.630;37.864;2023-02-10T05:57:16;100092.41;;;-1.49;61.09
53715;BME280;39608;55.630;37.864;2023-02-10T06:02:18;100083.22;;;-1.47;60.81
53715;BME280;39608;55.630;37.864;2023-02-10T06:07:22;100062.75;;;-1.46;60.87
53715;BME280;39608;55.630;37.864;2023-02-10T06:12:24;100076.66;;;-1.44;60.17
53715;BME280;39608;55.630;37.864;2023-02-10T06:17:26;100073.81;;;-1.43;60.02
53715;BME280;39608;55.630;37.864;2023-02-10T06:22:30;100052.31;;;-1.48;60.21
53715;BME280;39608;55.630;37.864;2023-02-10T06:27:32;100046.78;;;-1.46;60.67
53715;BME280;39608;55.630;37.864;2023-02-10T06:32:34;100039.63;;;-1.52;60.22
53715;BME280;39608;55.630;37.864;2023-02-10T06:37:37;100031.22;;;-1.49;60.43
53715;BME280;39608;55.630;37.864;2023-02-10T06:42:40;100022.44;;;-1.57;60.55
53715;BME280;39608;55.630;37.864;2023-02-10T06:47:41;100015.69;;;-1.52;60.08
53715;BME280;39608;55.630;37.864;2023-02-10T06:52:45;100020.78;;;-1.44;60.70
53715;BME280;39608;55.630;37.864;2023-02-10T06:57:47;100016.91;;;-1.42;60.22
53715;BME280;39608;55.630;37.864;2023-02-10T07:02:49;100000.13;;;-1.42;60.14
53715;BME280;39608;55.630;37.864;2023-02-10T07:07:53;99976.78;;;-1.40;60.08
53715;BME280;39608;55.630;37.864;2023-02-10T07:12:55;99954.28;;;-1.31;60.08
53715;BME280;39608;55.630;37.864;2023-02-10T07:17:57;99921.72;;;-1.26;59.59
53715;BME280;39608;55.630;37.864;2023-02-10T07:23:00;99901.06;;;-1.17;59.58
53715;BME280;39608;55.630;37.864;2023-02-10T07:28:02;99898.56;;;-1.06;59.55
53715;BME280;39608;55.630;37.864;2023-02-10T07:33:05;99874.16;;;-0.96;59.35
53715;BME280;39608;55.630;37.864;2023-02-10T07:38:08;99897.34;;;-1.03;59.74
53715;BME280;39608;55.630;37.864;2023-02-10T07:43:10;99881.38;;;-1.10;59.25
53715;BME280;39608;55.630;37.864;2023-02-10T07:48:12;99867.66;;;-1.07;59.20
53715;BME280;39608;55.630;37.864;2023-02-10T07:53:15;99868.06;;;-1.03;59.03
53715;BME280;39608;55.630;37.864;2023-02-10T07:58:17;99867.41;;;-0.98;58.93
53715;BME280;39608;55.630;37.864;2023-02-10T08:03:19;99865.31;;;-0.83;58.56
53715;BME280;39608;55.630;37.864;2023-02-10T08:08:23;99852.94;;;-0.64;58.55
53715;BME280;39608;55.630;37.864;2023-02-10T08:13:25;99848.81;;;-0.53;57.77
53715;BME280;39608;55.630;37.864;2023-02-10T08:18:28;99842.91;;;-0.30;57.53
53715;BME280;39608;55.630;37.864;2023-02-10T08:23:32;99853.38;;;-0.03;57.39
53715;BME280;39608;55.630;37.864;2023-02-10T08:28:35;99829.97;;;0.06;56.93
53715;BME280;39608;55.630;37.864;2023-02-10T08:33:39;99830.72;;;0.13;56.79
53715;BME280;39608;55.630;37.864;2023-02-10T08:38:44;99841.47;;;0.25;56.66
53715;BME280;39608;55.630;37.864;2023-02-10T08:43:46;99834.84;;;0.34;56.37
53715;BME280;39608;55.630;37.864;2023-02-10T08:48:48;99819.56;;;0.41;56.22
53715;BME280;39608;55.630;37.864;2023-02-10T08:53:51;99833.91;;;0.65;55.68
53715;BME280;39608;55.630;37.864;2023-02-10T08:58:55;99812.09;;;0.68;55.75
53715;BME280;39608;55.630;37.864;2023-02-10T09:03:57;99779.66;;;0.72;54.91
53715;BME280;39608;55.630;37.864;2023-02-10T09:09:00;99792.31;;;0.76;55.08
53715;BME280;39608;55.630;37.864;2023-02-10T09:14:03;99765.63;;;0.76;54.74
53715;BME280;39608;55.630;37.864;2023-02-10T09:19:05;99758.56;;;0.82;54.00
53715;BME280;39608;55.630;37.864;2023-02-10T09:24:08;99759.19;;;0.84;54.01
53715;BME280;39608;55.630;37.864;2023-02-10T09:29:11;99737.94;;;0.89;54.04
53715;BME280;39608;55.630;37.864;2023-02-10T09:34:14;99723.47;;;0.97;53.72
53715;BME280;39608;55.630;37.864;2023-02-10T09:39:17;99705.59;;;0.97;53.68
53715;BME280;39608;55.630;37.864;2023-02-10T09:44:21;99705.44;;;0.92;53.45
53715;BME280;39608;55.630;37.864;2023-02-10T09:49:46;99692.31;;;0.91;53.93
53715;BME280;39608;55.630;37.864;2023-02-10T09:54:53;99651.97;;;0.68;53.29
53715;BME280;39608;55.630;37.864;2023-02-10T09:59:56;99634.78;;;0.64;53.01
53715;BME280;39608;55.630;37.864;2023-02-10T10:05:04;99624.28;;;0.51;53.53
53715;BME280;39608;55.630;37.864;2023-02-10T10:10:22;99643.69;;;0.58;53.39
53715;BME280;39608;55.630;37.864;2023-02-10T10:15:32;99639.06;;;0.65;52.52
53715;BME280;39608;55.630;37.864;2023-02-10T10:20:50;99646.91;;;0.79;52.39
53715;BME280;39608;55.630;37.864;2023-02-10T10:26:15;99666.09;;;0.88;52.39
53715;BME280;39608;55.630;37.864;2023-02-10T10:31:24;99652.72;;;0.88;51.73
53715;BME280;39608;55.630;37.864;2023-02-10T10:36:32;99648.44;;;0.87;51.39
53715;BME280;39608;55.630;37.864;2023-02-10T10:41:37;99636.41;;;0.96;51.38
53715;BME280;39608;55.630;37.864;2023-02-10T10:46:41;99620.13;;;0.97;51.34
53715;BME280;39608;55.630;37.864;2023-02-10T10:51:45;99608.75;;;1.02;51.55
53715;BME280;39608;55.630;37.864;2023-02-10T10:56:51;99573.59;;;1.05;51.50
53715;BME280;39608;55.630;37.864;2023-02-10T11:01:56;99586.22;;;0.98;50.91
53715;BME280;39608;55.630;37.864;2023-02-10T11:06:59;99579.38;;;0.90;50.98
53715;BME280;39608;55.630;37.864;2023-02-10T11:12:05;99575.22;;;0.94;50.51
53715;BME280;39608;55.630;37.864;2023-02-10T11:17:19;99576.72;;;1.02;50.79
53715;BME280;39608;55.630;37.864;2023-02-10T11:22:21;99554.69;;;1.07;50.69
53715;BME280;39608;55.630;37.864;2023-02-10T11:27:25;99535.63;;;1.03;50.39
53715;BME280;39608;55.630;37.864;2023-02-10T11:32:29;99514.38;;;0.96;49.95
53715;BME280;39608;55.630;37.864;2023-02-10T11:37:34;99523.19;;;1.09;49.68
53715;BME280;39608;55.630;37.864;2023-02-10T11:42:38;99524.84;;;1.10;49.84
53715;BME280;39608;55.630;37.864;2023-02-10T11:47:40;99515.19;;;1.21;49.87
53715;BME280;39608;55.630;37.864;2023-02-10T11:52:43;99519.13;;;1.30;49.35
53715;BME280;39608;55.630;37.864;2023-02-10T11:57:51;99514.03;;;1.40;49.48
53715;BME280;39608;55.630;37.864;2023-02-10T12:03:32;99515.19;;;1.44;49.23
53715;BME280;39608;55.630;37.864;2023-02-10T12:08:43;99499.38;;;1.31;48.48
53715;BME280;39608;55.630;37.864;2023-02-10T12:13:56;99483.13;;;1.32;49.11
53715;BME280;39608;55.630;37.864;2023-02-10T12:19:04;99470.59;;;1.21;48.81
53715;BME280;39608;55.630;37.864;2023-02-10T12:24:25;99464.91;;;1.29;48.92
53715;BME280;39608;55.630;37.864;2023-02-10T12:29:47;99467.22;;;1.38;48.67
53715;BME280;39608;55.630;37.864;2023-02-10T12:35:10;99450.22;;;1.44;49.17
53715;BME280;39608;55.630;37.864;2023-02-10T12:40:38;99449.06;;;1.40;48.74
53715;BME280;39608;55.630;37.864;2023-02-10T12:45:50;99417.59;;;1.30;47.98
53715;BME280;39608;55.630;37.864;2023-02-10T12:51:22;99422.47;;;1.33;48.01
53715;BME280;39608;55.630;37.864;2023-02-10T12:56:33;99435.50;;;1.29;48.14
53715;BME280;39608;55.630;37.864;2023-02-10T13:01:43;99426.47;;;1.18;48.06
53715;BME280;39608;55.630;37.864;2023-02-10T13:06:50;99418.34;;;1.13;47.62
53715;BME280;39608;55.630;37.864;2023-02-10T13:12:04;99437.03;;;1.13;47.81
53715;BME280;39608;55.630;37.864;2023-02-10T13:17:09;99416.84;;;1.06;47.70
53715;BME280;39608;55.630;37.864;2023-02-10T13:22:17;99431.72;;;1.01;47.77
53715;BME280;39608;55.630;37.864;2023-02-10T13:27:28;99396.78;;;0.91;47.55
53715;BME280;39608;55.630;37.864;2023-02-10T13:32:48;99364.28;;;0.82;48.29
53715;BME280;39608;55.630;37.864;2023-02-10T13:37:56;99398.97;;;0.82;48.05
53715;BME280;39608;55.630;37.864;2023-02-10T13:43:01;99385.22;;;0.62;47.93
53715;BME280;39608;55.630;37.864;2023-02-10T13:48:15;99385.53;;;0.65;48.17
53715;BME280;39608;55.630;37.864;2023-02-10T13:53:28;99396.69;;;0.62;48.08
53715;BME280;39608;55.630;37.864;2023-02-10T13:58:33;99400.53;;;0.55;48.41
53715;BME280;39608;55.630;37.864;2023-02-10T14:03:36;99395.19;;;0.55;48.44
53715;BME280;39608;55.630;37.864;2023-02-10T14:08:40;99401.66;;;0.47;48.60
53715;BME280;39608;55.630;37.864;2023-02-10T14:13:44;99405.59;;;0.44;48.88
53715;BME280;39608;55.630;37.864;2023-02-10T14:18:58;99398.44;;;0.45;48.75
53715;BME280;39608;55.630;37.864;2023-02-10T14:24:01;99389.38;;;0.34;48.94
53715;BME280;39608;55.630;37.864;2023-02-10T14:29:03;99396.53;;;0.33;48.35
53715;BME280;39608;55.630;37.864;2023-02-10T14:34:21;99373.22;;;0.29;48.80
53715;BME280;39608;55.630;37.864;2023-02-10T14:39:25;99369.75;;;0.28;48.76
53715;BME280;39608;55.630;37.864;2023-02-10T14:44:32;99370.09;;;0.32;48.86
53715;BME280;39608;55.630;37.864;2023-02-10T14:49:37;99376.50;;;0.31;48.59
53715;BME280;39608;55.630;37.864;2023-02-10T14:54:39;99361.53;;;0.30;49.13
53715;BME280;39608;55.630;37.864;2023-02-10T14:59:41;99389.84;;;0.31;48.75
53715;BME280;39608;55.630;37.864;2023-02-10T15:04:46;99377.66;;;0.35;48.80
53715;BME280;39608;55.630;37.864;2023-02-10T15:09:50;99387.50;;;0.34;48.72
53715;BME280;39608;55.630;37.864;2023-02-10T15:14:58;99383.09;;;0.40;49.24
53715;BME280;39608;55.630;37.864;2023-02-10T15:20:21;99369.44;;;0.37;49.45
53715;BME280;39608;55.630;37.864;2023-02-10T15:25:29;99373.38;;;0.34;49.34
53715;BME280;39608;55.630;37.864;2023-02-10T15:30:53;99374.41;;;0.33;49.56
53715;BME280;39608;55.630;37.864;2023-02-10T15:36:20;99395.88;;;0.38;49.39
53715;BME280;39608;55.630;37.864;2023-02-10T15:41:33;99406.31;;;0.40;49.13
53715;BME280;39608;55.630;37.864;2023-02-10T15:46:35;99401.78;;;0.28;49.17
53715;BME280;39608;55.630;37.864;2023-02-10T15:51:42;99401.31;;;0.31;49.75
53715;BME280;39608;55.630;37.864;2023-02-10T15:56:54;99404.44;;;0.40;49.80
53715;BME280;39608;55.630;37.864;2023-02-10T16:01:57;99418.09;;;0.32;49.90
53715;BME280;39608;55.630;37.864;2023-02-10T16:07:01;99413.94;;;0.36;49.80
53715;BME280;39608;55.630;37.864;2023-02-10T16:12:04;99416.84;;;0.34;50.05
53715;BME280;39608;55.630;37.864;2023-02-10T16:17:06;99422.31;;;0.40;50.06
53715;BME280;39608;55.630;37.864;2023-02-10T16:22:10;99416.75;;;0.41;50.02
53715;BME280;39608;55.630;37.864;2023-02-10T16:27:12;99412.53;;;0.33;50.03
53715;BME280;39608;55.630;37.864;2023-02-10T16:32:23;99409.31;;;0.31;50.51
53715;BME280;39608;55.630;37.864;2023-02-10T16:37:28;99417.44;;;0.37;50.39
53715;BME280;39608;55.630;37.864;2023-02-10T16:42:30;99430.63;;;0.31;50.51
53715;BME280;39608;55.630;37.864;2023-02-10T16:47:32;99429.47;;;0.27;50.84
53715;BME280;39608;55.630;37.864;2023-02-10T16:52:35;99453.66;;;0.14;52.38
53715;BME280;39608;55.630;37.864;2023-02-10T16:57:37;99437.63;;;-0.10;53.50
53715;BME280;39608;55.630;37.864;2023-02-10T17:02:39;99461.03;;;-0.30;54.35
53715;BME280;39608;55.630;37.864;2023-02-10T17:07:43;99454.47;;;-0.46;55.45
53715;BME280;39608;55.630;37.864;2023-02-10T17:12:45;99448.13;;;-0.64;55.96
53715;BME280;39608;55.630;37.864;2023-02-10T17:17:47;99458.28;;;-0.73;56.75
53715;BME280;39608;55.630;37.864;2023-02-10T17:22:51;99459.59;;;-0.82;57.56
53715;BME280;39608;55.630;37.864;2023-02-10T17:27:54;99464.53;;;-0.86;57.80
53715;BME280;39608;55.630;37.864;2023-02-10T17:32:56;99463.34;;;-0.90;58.42
53715;BME280;39608;55.630;37.864;2023-02-10T17:38:00;99467.19;;;-0.86;58.95
53715;BME280;39608;55.630;37.864;2023-02-10T17:43:16;99467.34;;;-0.80;58.42
53715;BME280;39608;55.630;37.864;2023-02-10T17:48:18;99473.88;;;-0.76;58.94
53715;BME280;39608;55.630;37.864;2023-02-10T17:53:21;99461.56;;;-0.77;58.62
53715;BME280;39608;55.630;37.864;2023-02-10T17:58:24;99480.53;;;-0.67;58.94
53715;BME280;39608;55.630;37.864;2023-02-10T18:03:27;99465.94;;;-0.64;59.40
53715;BME280;39608;55.630;37.864;2023-02-10T18:08:31;99462.63;;;-0.60;58.77
53715;BME280;39608;55.630;37.864;2023-02-10T18:13:33;99452.78;;;-0.59;58.79
53715;BME280;39608;55.630;37.864;2023-02-10T18:18:35;99445.75;;;-0.54;59.78
53715;BME280;39608;55.630;37.864;2023-02-10T18:23:46;99445.09;;;-0.49;58.80
53715;BME280;39608;55.630;37.864;2023-02-10T18:28:48;99420.13;;;-0.55;59.39
53715;BME280;39608;55.630;37.864;2023-02-10T18:33:50;99427.16;;;-0.42;59.66
53715;BME280;39608;55.630;37.864;2023-02-10T18:38:54;99428.69;;;-0.34;59.46
53715;BME280;39608;55.630;37.864;2023-02-10T18:43:56;99416.75;;;-0.43;59.01
53715;BME280;39608;55.630;37.864;2023-02-10T18:48:58;99421.69;;;-0.47;59.08
53715;BME280;39608;55.630;37.864;2023-02-10T18:54:02;99434.84;;;-0.52;59.43
53715;BME280;39608;55.630;37.864;2023-02-10T18:59:04;99437.41;;;-0.57;59.58
53715;BME280;39608;55.630;37.864;2023-02-10T19:04:06;99420.25;;;-0.61;59.88
53715;BME280;39608;55.630;37.864;2023-02-10T19:09:10;99431.25;;;-0.58;59.53
53715;BME280;39608;55.630;37.864;2023-02-10T19:14:12;99429.56;;;-0.71;59.42
53715;BME280;39608;55.630;37.864;2023-02-10T19:19:14;99431.69;;;-0.61;59.91
53715;BME280;39608;55.630;37.864;2023-02-10T19:24:17;99429.09;;;-0.49;59.57
53715;BME280;39608;55.630;37.864;2023-02-10T19:29:19;99427.03;;;-0.47;60.06
53715;BME280;39608;55.630;37.864;2023-02-10T19:34:22;99436.03;;;-0.48;59.46
53715;BME280;39608;55.630;37.864;2023-02-10T19:39:25;99442.78;;;-0.45;60.00
53715;BME280;39608;55.630;37.864;2023-02-10T19:44:27;99419.97;;;-0.41;59.41
53715;BME280;39608;55.630;37.864;2023-02-10T19:49:31;99421.84;;;-0.42;59.16
53715;BME280;39608;55.630;37.864;2023-02-10T19:54:34;99425.31;;;-0.41;59.42
53715;BME280;39608;55.630;37.864;2023-02-10T19:59:37;99420.66;;;-0.46;59.75
53715;BME280;39608;55.630;37.864;2023-02-10T20:04:40;99427.59;;;-0.45;59.66
53715;BME280;39608;55.630;37.864;2023-02-10T20:09:43;99416.75;;;-0.43;59.99
53715;BME280;39608;55.630;37.864;2023-02-10T20:14:45;99430.06;;;-0.43;59.78
53715;BME280;39608;55.630;37.864;2023-02-10T20:19:47;99430.63;;;-0.41;59.38
53715;BME280;39608;55.630;37.864;2023-02-10T20:24:51;99414.41;;;-0.40;59.93
53715;BME280;39608;55.630;37.864;2023-02-10T20:29:53;99416.50;;;-0.42;60.01
53715;BME280;39608;55.630;37.864;2023-02-10T20:34:55;99409.94;;;-0.39;59.86
53715;BME280;39608;55.630;37.864;2023-02-10T20:39:58;99410.88;;;-0.33;59.68
53715;BME280;39608;55.630;37.864;2023-02-10T20:45:00;99389.03;;;-0.42;59.67
53715;BME280;39608;55.630;37.864;2023-02-10T20:50:04;99402.34;;;-0.42;59.67
53715;BME280;39608;55.630;37.864;2023-02-10T20:55:08;99405.63;;;-0.40;59.44
53715;BME280;39608;55.630;37.864;2023-02-10T21:00:12;99400.31;;;-0.40;59.86
53715;BME280;39608;55.630;37.864;2023-02-10T21:05:14;99393.94;;;-0.39;60.10
53715;BME280;39608;55.630;37.864;2023-02-10T21:10:17;99401.25;;;-0.35;59.69
53715;BME280;39608;55.630;37.864;2023-02-10T21:15:20;99388.38;;;-0.38;59.46
53715;BME280;39608;55.630;37.864;2023-02-10T21:20:22;99396.94;;;-0.36;59.63
53715;BME280;39608;55.630;37.864;2023-02-10T21:25:26;99388.06;;;-0.29;59.91
53715;BME280;39608;55.630;37.864;2023-02-10T21:30:28;99388.28;;;-0.31;59.53
53715;BME280;39608;55.630;37.864;2023-02-10T21:35:31;99399.69;;;-0.24;59.84
53715;BME280;39608;55.630;37.864;2023-02-10T21:40:34;99390.19;;;-0.20;59.87
53715;BME280;39608;55.630;37.864;2023-02-10T21:45:36;99398.75;;;-0.18;59.81
53715;BME280;39608;55.630;37.864;2023-02-10T21:50:39;99387.28;;;-0.18;59.53
53715;BME280;39608;55.630;37.864;2023-02-10T21:55:42;99405.25;;;-0.13;59.43
53715;BME280;39608;55.630;37.864;2023-02-10T22:00:44;99398.28;;;-0.14;60.01
53715;BME280;39608;55.630;37.864;2023-02-10T22:05:53;99392.78;;;-0.01;59.58
53715;BME280;39608;55.630;37.864;2023-02-10T22:10:56;99398.44;;;0.03;59.82
53715;BME280;39608;55.630;37.864;2023-02-10T22:15:58;99406.59;;;0.08;59.78
53715;BME280;39608;55.630;37.864;2023-02-10T22:21:03;99410.28;;;0.07;59.66
53715;BME280;39608;55.630;37.864;2023-02-10T22:26:08;99398.13;;;-0.01;59.54
53715;BME280;39608;55.630;37.864;2023-02-10T22:31:12;99396.47;;;-0.02;59.57
53715;BME280;39608;55.630;37.864;2023-02-10T22:36:15;99402.13;;;-0.10;59.80
53715;BME280;39608;55.630;37.864;2023-02-10T22:41:20;99391.31;;;-0.27;59.52
53715;BME280;39608;55.630;37.864;2023-02-10T22:46:23;99409.88;;;-0.21;59.67
53715;BME280;39608;55.630;37.864;2023-02-10T22:51:28;99390.94;;;-0.31;60.14
53715;BME280;39608;55.630;37.864;2023-02-10T22:56:34;99403.38;;;-0.25;60.06
53715;BME280;39608;55.630;37.864;2023-02-10T23:01:38;99401.41;;;-0.29;59.94
53715;BME280;39608;55.630;37.864;2023-02-10T23:06:41;99398.44;;;-0.40;59.86
53715;BME280;39608;55.630;37.864;2023-02-10T23:11:46;99405.16;;;-0.37;59.86
53715;BME280;39608;55.630;37.864;2023-02-10T23:16:49;99415.09;;;-0.44;60.21
53715;BME280;39608;55.630;37.864;2023-02-10T23:21:52;99410.28;;;-0.36;60.28
53715;BME280;39608;55.630;37.864;2023-02-10T23:26:55;99406.91;;;-0.31;60.44
53715;BME280;39608;55.630;37.864;2023-02-10T23:31:57;99432.69;;;-0.25;60.14
53715;BME280;39608;55.630;37.864;2023-02-10T23:36:59;99423.19;;;-0.21;60.02
53715;BME280;39608;55.630;37.864;2023-02-10T23:42:02;99431.19;;;-0.21;60.09
53715;BME280;39608;55.630;37.864;2023-02-10T23:47:04;99431.19;;;-0.21;59.87
53715;BME280;39608;55.630;37.864;2023-02-10T23:52:06;99426.91;;;-0.22;60.39
53715;BME280;39608;55.630;37.864;2023-02-10T23:57:10;99425.88;;;-0.21;60.07
